createdAt,value
2019-03-25T00:00:39.433Z,837.34
2019-03-25T00:01:39.483Z,837.37
2019-03-25T00:02:39.433Z,837.30
2019-03-25T00:03:39.390Z,837.32
2019-03-25T00:04:39.331Z,837.29
2019-03-25T00:05:39.321Z,837.25
2019-03-25T00:06:39.350Z,837.29
2019-03-25T00:07:39.369Z,837.23
2019-03-25T00:08:39.543Z,837.23
2019-03-25T00:09:39.421Z,837.23
2019-03-25T00:10:39.272Z,837.17
2019-03-25T00:11:39.292Z,837.17
2019-03-25T00:12:39.292Z,837.20
2019-03-25T00:13:39.273Z,837.12
2019-03-25T00:14:39.321Z,837.11
2019-03-25T00:15:39.211Z,837.17
2019-03-25T00:16:39.212Z,837.10
2019-03-25T00:17:39.244Z,837.11
2019-03-25T00:18:39.214Z,837.11
2019-03-25T00:19:39.181Z,837.08
2019-03-25T00:20:39.251Z,837.11
2019-03-25T00:21:39.141Z,837.08
2019-03-25T00:22:39.122Z,837.02
2019-03-25T00:23:39.121Z,837.00
2019-03-25T00:24:39.324Z,836.95
2019-03-25T00:25:39.150Z,836.96
2019-03-25T00:26:39.376Z,836.91
2019-03-25T00:27:39.079Z,836.96
2019-03-25T00:28:39.071Z,836.86
2019-03-25T00:29:39.321Z,836.90
2019-03-25T00:30:39.260Z,836.88
2019-03-25T00:31:39.029Z,836.87
2019-03-25T00:32:39.114Z,836.88
2019-03-25T00:33:39.063Z,836.88
2019-03-25T00:34:39.009Z,836.90
2019-03-25T00:35:39.102Z,836.89
2019-03-25T00:36:39.019Z,836.86
2019-03-25T00:37:38.960Z,836.82
2019-03-25T00:38:39.041Z,836.89
2019-03-25T00:39:39.011Z,836.88
2019-03-25T00:40:38.940Z,836.84
2019-03-25T00:41:38.921Z,836.77
2019-03-25T00:42:39.142Z,836.73
2019-03-25T00:43:38.920Z,836.75
2019-03-25T00:44:38.969Z,836.73
2019-03-25T00:45:38.970Z,836.69
2019-03-25T00:46:38.870Z,836.70
2019-03-25T00:47:38.870Z,836.73
2019-03-25T00:48:38.850Z,836.67
2019-03-25T00:49:38.901Z,836.67
2019-03-25T00:50:38.931Z,836.63
2019-03-25T00:51:38.831Z,836.66
2019-03-25T00:52:38.842Z,836.62
2019-03-25T00:53:38.832Z,836.62
2019-03-25T00:54:49.329Z,836.57
2019-03-25T00:55:39.839Z,836.56
2019-03-25T00:56:38.762Z,836.58
2019-03-25T00:57:38.801Z,836.56
2019-03-25T00:58:38.896Z,836.54
2019-03-25T00:59:38.782Z,836.54
2019-03-25T01:00:38.779Z,836.50
2019-03-25T01:01:38.885Z,836.50
2019-03-25T01:02:38.680Z,836.50
2019-03-25T01:03:38.772Z,836.52
2019-03-25T01:04:38.662Z,836.49
2019-03-25T01:05:38.670Z,836.50
2019-03-25T01:06:38.672Z,836.45
2019-03-25T01:07:38.700Z,836.49
2019-03-25T01:08:38.631Z,836.44
2019-03-25T01:09:38.711Z,836.40
2019-03-25T01:10:38.591Z,836.33
2019-03-25T01:11:48.635Z,836.37
2019-03-25T01:12:39.752Z,836.41
2019-03-25T01:13:38.580Z,836.48
2019-03-25T01:14:38.702Z,836.41
2019-03-25T01:15:38.563Z,836.37
2019-03-25T01:16:38.528Z,836.43
2019-03-25T01:17:38.566Z,836.41
2019-03-25T01:18:38.631Z,836.41
2019-03-25T01:19:38.542Z,836.40
2019-03-25T01:20:38.489Z,836.30
2019-03-25T01:21:38.931Z,836.28
2019-03-25T01:22:38.669Z,836.40
2019-03-25T01:23:38.484Z,836.21
2019-03-25T01:24:38.520Z,836.32
2019-03-25T01:25:38.482Z,836.30
2019-03-25T01:26:38.562Z,836.33
2019-03-25T01:27:38.419Z,836.30
2019-03-25T01:28:38.400Z,836.21
2019-03-25T01:29:38.463Z,836.27
2019-03-25T01:30:38.501Z,836.29
2019-03-25T01:31:38.359Z,836.23
2019-03-25T01:32:38.348Z,836.19
2019-03-25T01:33:38.389Z,836.21
2019-03-25T01:34:38.373Z,836.21
2019-03-25T01:35:38.372Z,836.18
2019-03-25T01:36:38.401Z,836.19
2019-03-25T01:37:38.383Z,836.27
2019-03-25T01:38:38.301Z,836.20
2019-03-25T01:39:38.320Z,836.22
2019-03-25T01:40:38.402Z,836.20
2019-03-25T01:41:38.260Z,836.26
2019-03-25T01:42:38.502Z,836.22
2019-03-25T01:43:38.262Z,836.28
2019-03-25T01:44:38.229Z,836.23
2019-03-25T01:45:38.237Z,836.17
2019-03-25T01:46:38.193Z,836.21
2019-03-25T01:47:38.181Z,836.27
2019-03-25T01:48:38.239Z,836.26
2019-03-25T01:49:38.181Z,836.17
2019-03-25T01:50:38.151Z,836.17
2019-03-25T01:51:38.152Z,836.18
2019-03-25T01:52:38.120Z,836.17
2019-03-25T01:53:38.119Z,836.25
2019-03-25T01:54:38.184Z,836.19
2019-03-25T01:55:38.213Z,836.21
2019-03-25T01:56:38.089Z,836.06
2019-03-25T01:57:38.083Z,836.18
2019-03-25T01:58:38.253Z,836.16
2019-03-25T01:59:38.102Z,836.21
2019-03-25T02:00:38.183Z,836.12
2019-03-25T02:01:38.031Z,836.15
2019-03-25T02:02:38.030Z,836.13
2019-03-25T02:03:38.014Z,836.15
2019-03-25T02:04:38.003Z,836.08
2019-03-25T02:05:38.001Z,836.10
2019-03-25T02:06:38.220Z,836.05
2019-03-25T02:07:38.005Z,836.12
2019-03-25T02:08:37.992Z,836.06
2019-03-25T02:09:37.953Z,836.14
2019-03-25T02:10:37.959Z,836.15
2019-03-25T02:11:37.941Z,836.13
2019-03-25T02:12:37.962Z,836.09
2019-03-25T02:13:37.942Z,836.09
2019-03-25T02:14:38.021Z,836.04
2019-03-25T02:15:37.959Z,836.01
2019-03-25T02:16:37.953Z,836.04
2019-03-25T02:17:37.861Z,836.07
2019-03-25T02:18:37.979Z,836.02
2019-03-25T02:19:37.839Z,835.95
2019-03-25T02:20:37.841Z,836.07
2019-03-25T02:21:37.923Z,836.05
2019-03-25T02:22:37.854Z,836.03
2019-03-25T02:23:37.792Z,836.02
2019-03-25T02:24:37.849Z,836.04
2019-03-25T02:25:37.801Z,836.00
2019-03-25T02:26:37.753Z,836.00
2019-03-25T02:27:37.730Z,836.00
2019-03-25T02:28:37.740Z,836.01
2019-03-25T02:29:37.723Z,835.96
2019-03-25T02:30:37.814Z,836.00
2019-03-25T02:31:37.740Z,836.05
2019-03-25T02:32:37.690Z,836.00
2019-03-25T02:33:37.673Z,836.06
2019-03-25T02:34:37.669Z,836.04
2019-03-25T02:35:37.700Z,836.00
2019-03-25T02:36:37.835Z,836.02
2019-03-25T02:37:37.651Z,836.03
2019-03-25T02:38:37.664Z,836.06
2019-03-25T02:39:37.653Z,835.94
2019-03-25T02:40:37.599Z,835.89
2019-03-25T02:41:37.644Z,835.85
2019-03-25T02:42:37.740Z,835.82
2019-03-25T02:43:37.567Z,835.86
2019-03-25T02:44:37.687Z,835.86
2019-03-25T02:45:37.572Z,835.84
2019-03-25T02:46:37.586Z,835.88
2019-03-25T02:47:37.553Z,835.89
2019-03-25T02:48:37.571Z,835.84
2019-03-25T02:49:37.492Z,835.89
2019-03-25T02:50:37.487Z,835.89
2019-03-25T02:51:37.462Z,835.96
2019-03-25T02:52:37.633Z,835.92
2019-03-25T02:53:37.450Z,835.92
2019-03-25T02:54:37.525Z,835.90
2019-03-25T02:55:41.798Z,835.92
2019-03-25T02:56:38.531Z,835.89
2019-03-25T02:57:37.416Z,835.82
2019-03-25T02:58:37.403Z,835.88
2019-03-25T02:59:37.401Z,835.83
2019-03-25T03:00:37.548Z,835.76
2019-03-25T03:01:37.390Z,835.73
2019-03-25T03:02:37.407Z,835.75
2019-03-25T03:03:37.362Z,835.83
2019-03-25T03:04:37.383Z,835.82
2019-03-25T03:05:37.320Z,835.81
2019-03-25T03:06:37.428Z,835.83
2019-03-25T03:07:37.341Z,835.77
2019-03-25T03:08:37.506Z,835.84
2019-03-25T03:09:37.560Z,835.78
2019-03-25T03:10:37.270Z,835.68
2019-03-25T03:11:37.388Z,835.70
2019-03-25T03:12:37.317Z,835.79
2019-03-25T03:13:37.246Z,835.80
2019-03-25T03:14:37.243Z,835.75
2019-03-25T03:15:37.213Z,835.71
2019-03-25T03:16:37.220Z,835.73
2019-03-25T03:17:37.223Z,835.76
2019-03-25T03:18:37.294Z,835.78
2019-03-25T03:19:37.170Z,835.72
2019-03-25T03:20:37.160Z,835.78
2019-03-25T03:21:37.150Z,835.73
2019-03-25T03:22:37.131Z,835.74
2019-03-25T03:23:37.122Z,835.78
2019-03-25T03:24:37.206Z,835.71
2019-03-25T03:25:37.103Z,835.75
2019-03-25T03:26:37.084Z,835.76
2019-03-25T03:27:37.143Z,835.76
2019-03-25T03:28:37.053Z,835.74
2019-03-25T03:29:37.051Z,835.75
2019-03-25T03:30:37.159Z,835.74
2019-03-25T03:31:37.045Z,835.64
2019-03-25T03:32:37.040Z,835.71
2019-03-25T03:33:37.021Z,835.70
2019-03-25T03:34:37.003Z,835.74
2019-03-25T03:35:37.023Z,835.70
2019-03-25T03:36:37.103Z,835.68
2019-03-25T03:37:36.973Z,835.67
2019-03-25T03:38:36.941Z,835.60
2019-03-25T03:39:37.003Z,835.62
2019-03-25T03:40:37.048Z,835.69
2019-03-25T03:41:36.931Z,835.66
2019-03-25T03:42:37.023Z,835.67
2019-03-25T03:43:36.993Z,835.72
2019-03-25T03:44:36.902Z,835.69
2019-03-25T03:45:36.923Z,835.62
2019-03-25T03:46:36.877Z,835.66
2019-03-25T03:47:36.856Z,835.57
2019-03-25T03:48:36.931Z,835.63
2019-03-25T03:49:37.037Z,835.62
2019-03-25T03:50:36.840Z,835.63
2019-03-25T03:51:36.852Z,835.63
2019-03-25T03:52:36.799Z,835.54
2019-03-25T03:53:36.782Z,835.59
2019-03-25T03:54:36.866Z,835.55
2019-03-25T03:55:36.761Z,835.58
2019-03-25T03:56:36.760Z,835.57
2019-03-25T03:57:36.758Z,835.62
2019-03-25T03:58:36.725Z,835.62
2019-03-25T03:59:36.723Z,835.59
2019-03-25T04:00:36.791Z,835.59
2019-03-25T04:01:36.723Z,835.62
2019-03-25T04:02:36.699Z,835.62
2019-03-25T04:03:36.681Z,835.55
2019-03-25T04:04:36.653Z,835.56
2019-03-25T04:05:36.794Z,835.57
2019-03-25T04:06:36.747Z,835.55
2019-03-25T04:07:36.641Z,835.54
2019-03-25T04:08:36.696Z,835.53
2019-03-25T04:09:36.612Z,835.47
2019-03-25T04:10:36.630Z,835.50
2019-03-25T04:11:36.590Z,835.54
2019-03-25T04:12:36.652Z,835.51
2019-03-25T04:13:36.564Z,835.54
2019-03-25T04:14:36.595Z,835.49
2019-03-25T04:15:36.693Z,835.52
2019-03-25T04:16:36.537Z,835.47
2019-03-25T04:17:36.552Z,835.49
2019-03-25T04:18:36.584Z,835.54
2019-03-25T04:19:36.510Z,835.57
2019-03-25T04:20:36.510Z,835.56
2019-03-25T04:21:36.595Z,835.59
2019-03-25T04:22:36.480Z,835.53
2019-03-25T04:23:36.488Z,835.53
2019-03-25T04:24:36.564Z,835.56
2019-03-25T04:25:36.485Z,835.59
2019-03-25T04:26:36.425Z,835.53
2019-03-25T04:27:36.470Z,835.56
2019-03-25T04:28:36.407Z,835.52
2019-03-25T04:29:36.402Z,835.54
2019-03-25T04:30:36.867Z,835.53
2019-03-25T04:31:36.363Z,835.52
2019-03-25T04:32:36.397Z,835.48
2019-03-25T04:33:36.394Z,835.53
2019-03-25T04:34:36.362Z,835.51
2019-03-25T04:35:36.321Z,835.52
2019-03-25T04:36:36.599Z,835.55
2019-03-25T04:37:36.364Z,835.54
2019-03-25T04:38:36.313Z,835.53
2019-03-25T04:39:36.282Z,835.56
2019-03-25T04:40:37.253Z,835.54
2019-03-25T04:41:36.275Z,835.52
2019-03-25T04:42:36.371Z,835.53
2019-03-25T04:43:36.292Z,835.52
2019-03-25T04:44:36.220Z,835.51
2019-03-25T04:45:36.361Z,835.48
2019-03-25T04:46:36.262Z,835.49
2019-03-25T04:47:36.247Z,835.42
2019-03-25T04:48:36.242Z,835.55
2019-03-25T04:49:36.352Z,835.54
2019-03-25T04:50:36.983Z,835.50
2019-03-25T04:51:36.153Z,835.44
2019-03-25T04:52:36.153Z,835.53
2019-03-25T04:53:36.161Z,835.43
2019-03-25T04:54:36.429Z,835.52
2019-03-25T04:55:36.234Z,835.47
2019-03-25T04:56:39.880Z,835.51
2019-03-25T04:57:36.185Z,835.52
2019-03-25T04:58:36.061Z,835.57
2019-03-25T04:59:36.081Z,835.48
2019-03-25T05:00:36.142Z,835.55
2019-03-25T05:01:39.942Z,835.47
2019-03-25T05:02:36.047Z,835.46
2019-03-25T05:03:36.279Z,835.53
2019-03-25T05:04:36.002Z,835.50
2019-03-25T05:05:36.463Z,835.54
2019-03-25T05:06:36.522Z,835.52
2019-03-25T05:07:36.982Z,835.48
2019-03-25T05:08:39.232Z,835.46
2019-03-25T05:09:39.062Z,835.41
2019-03-25T05:10:35.950Z,835.43
2019-03-25T05:11:36.062Z,835.41
2019-03-25T05:12:35.961Z,835.40
2019-03-25T05:13:35.963Z,835.41
2019-03-25T05:14:36.032Z,835.39
2019-03-25T05:15:35.893Z,835.44
2019-03-25T05:16:35.872Z,835.45
2019-03-25T05:17:35.851Z,835.43
2019-03-25T05:18:35.923Z,835.51
2019-03-25T05:19:36.133Z,835.45
2019-03-25T05:20:37.352Z,835.47
2019-03-25T05:21:36.472Z,835.45
2019-03-25T05:22:40.243Z,835.50
2019-03-25T05:23:35.831Z,835.54
2019-03-25T05:24:35.889Z,835.40
2019-03-25T05:25:36.581Z,835.44
2019-03-25T05:26:38.341Z,835.43
2019-03-25T05:27:35.741Z,835.52
2019-03-25T05:28:35.868Z,835.46
2019-03-25T05:29:37.714Z,835.41
2019-03-25T05:30:39.552Z,835.47
2019-03-25T05:31:35.752Z,835.45
2019-03-25T05:32:35.732Z,835.38
2019-03-25T05:33:35.720Z,835.40
2019-03-25T05:34:36.582Z,835.34
2019-03-25T05:35:37.852Z,835.36
2019-03-25T05:36:35.841Z,835.41
2019-03-25T05:37:35.782Z,835.39
2019-03-25T05:38:36.382Z,835.38
2019-03-25T05:39:37.582Z,835.45
2019-03-25T05:40:39.012Z,835.35
2019-03-25T05:41:35.579Z,835.40
2019-03-25T05:42:35.681Z,835.41
2019-03-25T05:43:35.603Z,835.39
2019-03-25T05:44:35.793Z,835.42
2019-03-25T05:45:35.608Z,835.35
2019-03-25T05:46:35.609Z,835.41
2019-03-25T05:47:35.611Z,835.41
2019-03-25T05:48:35.594Z,835.33
2019-03-25T05:49:39.373Z,835.41
2019-03-25T05:50:35.501Z,835.43
2019-03-25T05:51:35.469Z,835.35
2019-03-25T05:52:35.722Z,835.40
2019-03-25T05:53:36.327Z,835.31
2019-03-25T05:54:38.162Z,835.38
2019-03-25T05:55:37.932Z,835.34
2019-03-25T05:56:37.673Z,835.33
2019-03-25T05:57:35.857Z,835.41
2019-03-25T05:58:36.103Z,835.42
2019-03-25T05:59:35.451Z,835.35
2019-03-25T06:00:35.509Z,835.38
2019-03-25T06:01:35.441Z,835.42
2019-03-25T06:02:36.233Z,835.36
2019-03-25T06:03:37.314Z,835.30
2019-03-25T06:04:37.827Z,835.35
2019-03-25T06:05:36.132Z,835.37
2019-03-25T06:06:37.422Z,835.40
2019-03-25T06:07:35.299Z,835.42
2019-03-25T06:08:35.279Z,835.41
2019-03-25T06:09:35.781Z,835.36
2019-03-25T06:10:38.613Z,835.32
2019-03-25T06:11:35.260Z,835.35
2019-03-25T06:12:35.351Z,835.36
2019-03-25T06:13:35.309Z,835.34
2019-03-25T06:14:35.221Z,835.34
2019-03-25T06:15:35.211Z,835.33
2019-03-25T06:16:35.292Z,835.35
2019-03-25T06:17:35.181Z,835.35
2019-03-25T06:18:35.260Z,835.36
2019-03-25T06:19:35.172Z,835.36
2019-03-25T06:20:35.169Z,835.35
2019-03-25T06:21:35.139Z,835.30
2019-03-25T06:22:35.143Z,835.32
2019-03-25T06:23:35.120Z,835.32
2019-03-25T06:24:35.182Z,835.30
2019-03-25T06:25:35.248Z,835.30
2019-03-25T06:26:35.190Z,835.23
2019-03-25T06:27:35.139Z,835.28
2019-03-25T06:28:35.102Z,835.30
2019-03-25T06:29:35.150Z,835.28
2019-03-25T06:30:35.160Z,835.32
2019-03-25T06:31:35.021Z,835.26
2019-03-25T06:32:35.269Z,835.29
2019-03-25T06:33:35.029Z,835.28
2019-03-25T06:34:35.401Z,835.27
2019-03-25T06:35:38.542Z,835.27
2019-03-25T06:36:39.198Z,835.28
2019-03-25T06:37:39.162Z,835.30
2019-03-25T06:38:37.162Z,835.25
2019-03-25T06:39:38.743Z,835.20
2019-03-25T06:40:34.930Z,835.24
2019-03-25T06:41:34.922Z,835.18
2019-03-25T06:42:35.019Z,835.23
2019-03-25T06:43:34.950Z,835.22
2019-03-25T06:44:35.143Z,835.17
2019-03-25T06:45:34.890Z,835.27
2019-03-25T06:46:34.879Z,835.14
2019-03-25T06:47:35.133Z,835.21
2019-03-25T06:48:34.930Z,835.19
2019-03-25T06:49:35.551Z,835.12
2019-03-25T06:50:36.354Z,835.18
2019-03-25T06:51:34.963Z,835.22
2019-03-25T06:52:35.182Z,835.09
2019-03-25T06:53:35.383Z,835.06
2019-03-25T06:54:34.836Z,835.11
2019-03-25T06:55:35.113Z,835.16
2019-03-25T06:56:34.811Z,835.12
2019-03-25T06:57:35.088Z,835.16
2019-03-25T06:58:35.134Z,835.11
2019-03-25T06:59:34.802Z,835.18
2019-03-25T07:00:40.406Z,835.17
2019-03-25T07:01:34.709Z,835.20
2019-03-25T07:02:35.082Z,835.18
2019-03-25T07:03:34.694Z,835.17
2019-03-25T07:04:35.342Z,835.14
2019-03-25T07:05:34.687Z,835.16
2019-03-25T07:06:35.293Z,835.12
2019-03-25T07:07:36.592Z,835.14
2019-03-25T07:08:35.071Z,835.09
2019-03-25T07:09:34.883Z,835.09
2019-03-25T07:10:34.609Z,835.12
2019-03-25T07:11:34.600Z,835.16
2019-03-25T07:12:34.693Z,835.23
2019-03-25T07:13:34.852Z,835.17
2019-03-25T07:14:34.550Z,835.11
2019-03-25T07:15:34.564Z,835.16
2019-03-25T07:16:34.531Z,835.20
2019-03-25T07:17:34.558Z,835.17
2019-03-25T07:18:34.797Z,835.20
2019-03-25T07:19:34.592Z,835.15
2019-03-25T07:20:34.489Z,835.19
2019-03-25T07:21:34.549Z,835.19
2019-03-25T07:22:34.541Z,835.17
2019-03-25T07:23:34.540Z,835.13
2019-03-25T07:24:34.703Z,835.22
2019-03-25T07:25:34.509Z,835.13
2019-03-25T07:26:37.522Z,835.21
2019-03-25T07:27:37.153Z,835.20
2019-03-25T07:28:34.462Z,835.20
2019-03-25T07:29:34.584Z,835.25
2019-03-25T07:30:34.451Z,835.19
2019-03-25T07:31:34.372Z,835.25
2019-03-25T07:32:34.379Z,835.16
2019-03-25T07:33:34.342Z,835.19
2019-03-25T07:34:34.381Z,835.18
2019-03-25T07:35:34.352Z,835.21
2019-03-25T07:36:34.399Z,835.21
2019-03-25T07:37:34.311Z,835.16
2019-03-25T07:38:34.564Z,835.19
2019-03-25T07:39:34.289Z,835.25
2019-03-25T07:40:34.582Z,835.23
2019-03-25T07:41:34.241Z,835.16
2019-03-25T07:42:34.371Z,835.15
2019-03-25T07:43:34.319Z,835.14
2019-03-25T07:44:34.311Z,835.20
2019-03-25T07:45:34.283Z,835.13
2019-03-25T07:46:34.232Z,835.12
2019-03-25T07:47:34.242Z,835.12
2019-03-25T07:48:34.274Z,835.11
2019-03-25T07:49:34.173Z,835.14
2019-03-25T07:50:34.180Z,835.17
2019-03-25T07:51:34.172Z,835.14
2019-03-25T07:52:34.304Z,835.13
2019-03-25T07:53:34.302Z,835.12
2019-03-25T07:54:34.229Z,835.13
2019-03-25T07:55:34.126Z,835.18
2019-03-25T07:56:34.186Z,835.19
2019-03-25T07:57:34.087Z,835.14
2019-03-25T07:58:34.094Z,835.13
2019-03-25T07:59:34.164Z,835.11
2019-03-25T08:00:34.147Z,835.12
2019-03-25T08:01:34.164Z,835.06
2019-03-25T08:02:34.163Z,835.12
2019-03-25T08:03:34.058Z,835.12
2019-03-25T08:04:34.079Z,835.17
2019-03-25T08:05:34.096Z,835.14
2019-03-25T08:06:34.063Z,835.18
2019-03-25T08:07:34.006Z,835.13
2019-03-25T08:08:33.973Z,835.21
2019-03-25T08:09:33.953Z,835.13
2019-03-25T08:10:33.942Z,835.14
2019-03-25T08:11:33.995Z,835.14
2019-03-25T08:12:34.054Z,835.11
2019-03-25T08:13:34.066Z,835.14
2019-03-25T08:14:33.910Z,835.06
2019-03-25T08:15:33.982Z,835.16
2019-03-25T08:16:34.433Z,835.20
2019-03-25T08:17:33.971Z,835.07
2019-03-25T08:18:34.031Z,835.10
2019-03-25T08:19:33.902Z,835.07
2019-03-25T08:20:33.848Z,835.01
2019-03-25T08:21:33.811Z,835.06
2019-03-25T08:22:33.942Z,835.10
2019-03-25T08:23:33.789Z,835.12
2019-03-25T08:24:33.999Z,835.11
2019-03-25T08:25:33.839Z,835.07
2019-03-25T08:26:33.810Z,835.05
2019-03-25T08:27:33.861Z,835.05
2019-03-25T08:28:33.830Z,835.08
2019-03-25T08:29:33.719Z,835.12
2019-03-25T08:30:33.792Z,835.10
2019-03-25T08:31:33.720Z,835.11
2019-03-25T08:32:33.700Z,835.17
2019-03-25T08:33:33.680Z,835.15
2019-03-25T08:34:33.662Z,835.13
2019-03-25T08:35:33.670Z,835.08
2019-03-25T08:36:33.831Z,835.12
2019-03-25T08:37:33.692Z,835.16
2019-03-25T08:38:33.654Z,835.15
2019-03-25T08:39:33.720Z,835.12
2019-03-25T08:40:35.775Z,835.10
2019-03-25T08:41:36.812Z,835.12
2019-03-25T08:42:38.227Z,835.15
2019-03-25T08:43:37.095Z,835.10
2019-03-25T08:44:35.663Z,835.18
2019-03-25T08:45:38.004Z,835.13
2019-03-25T08:46:36.553Z,835.12
2019-03-25T08:47:33.531Z,835.12
2019-03-25T08:48:33.611Z,835.12
2019-03-25T08:49:33.712Z,835.10
2019-03-25T08:50:37.742Z,835.11
2019-03-25T08:51:33.573Z,835.05
2019-03-25T08:52:33.513Z,835.16
2019-03-25T08:53:35.163Z,835.12
2019-03-25T08:54:34.512Z,835.13
2019-03-25T08:55:33.739Z,835.04
2019-03-25T08:56:33.419Z,835.18
2019-03-25T08:57:33.420Z,835.12
2019-03-25T08:58:33.663Z,835.09
2019-03-25T08:59:35.042Z,835.13
2019-03-25T09:00:37.628Z,835.15
2019-03-25T09:01:33.369Z,835.15
2019-03-25T09:02:33.422Z,835.10
2019-03-25T09:03:33.402Z,835.09
2019-03-25T09:04:33.339Z,835.12
2019-03-25T09:05:33.380Z,835.14
2019-03-25T09:06:34.873Z,835.10
2019-03-25T09:07:33.454Z,835.08
2019-03-25T09:08:33.307Z,835.04
2019-03-25T09:09:33.319Z,835.18
2019-03-25T09:10:33.573Z,835.16
2019-03-25T09:11:33.339Z,835.10
2019-03-25T09:12:35.053Z,835.12
2019-03-25T09:13:33.240Z,835.09
2019-03-25T09:14:33.445Z,835.15
2019-03-25T09:15:33.240Z,835.15
2019-03-25T09:16:33.200Z,835.16
2019-03-25T09:17:33.259Z,835.17
2019-03-25T09:18:35.340Z,835.15
2019-03-25T09:19:33.254Z,835.07
2019-03-25T09:20:33.221Z,835.13
2019-03-25T09:21:33.160Z,835.08
2019-03-25T09:22:33.231Z,835.08
2019-03-25T09:23:33.622Z,835.10
2019-03-25T09:24:33.280Z,835.15
2019-03-25T09:25:33.132Z,835.16
2019-03-25T09:26:33.122Z,835.13
2019-03-25T09:27:33.100Z,835.10
2019-03-25T09:28:33.063Z,835.14
2019-03-25T09:29:33.060Z,835.03
2019-03-25T09:30:34.252Z,835.08
2019-03-25T09:31:36.980Z,835.04
2019-03-25T09:32:33.022Z,835.02
2019-03-25T09:33:33.041Z,835.04
2019-03-25T09:34:33.202Z,834.98
2019-03-25T09:35:33.053Z,835.03
2019-03-25T09:36:33.213Z,834.98
2019-03-25T09:37:32.991Z,835.00
2019-03-25T09:38:33.079Z,834.94
2019-03-25T09:39:33.182Z,834.94
2019-03-25T09:40:32.943Z,835.00
2019-03-25T09:41:32.929Z,834.98
2019-03-25T09:42:33.043Z,834.98
2019-03-25T09:43:32.920Z,834.89
2019-03-25T09:44:32.921Z,834.87
2019-03-25T09:45:32.903Z,834.89
2019-03-25T09:46:33.111Z,834.88
2019-03-25T09:47:33.323Z,834.82
2019-03-25T09:48:33.162Z,834.88
2019-03-25T09:49:33.072Z,834.92
2019-03-25T09:50:35.722Z,834.92
2019-03-25T09:51:32.913Z,834.91
2019-03-25T09:52:38.435Z,834.89
2019-03-25T09:53:33.852Z,834.89
2019-03-25T09:54:32.852Z,834.83
2019-03-25T09:55:33.442Z,834.79
2019-03-25T09:56:33.323Z,834.78
2019-03-25T09:57:32.763Z,834.80
2019-03-25T09:58:36.580Z,834.75
2019-03-25T09:59:33.132Z,834.76
2019-03-25T10:00:34.942Z,834.84
2019-03-25T10:01:32.730Z,834.78
2019-03-25T10:02:32.697Z,834.78
2019-03-25T10:03:32.684Z,834.79
2019-03-25T10:04:32.672Z,834.79
2019-03-25T10:05:33.201Z,834.75
2019-03-25T10:06:32.641Z,834.79
2019-03-25T10:07:32.671Z,834.81
2019-03-25T10:08:32.631Z,834.77
2019-03-25T10:09:33.051Z,834.80
2019-03-25T10:10:35.583Z,834.72
2019-03-25T10:11:32.702Z,834.74
2019-03-25T10:12:32.601Z,834.75
2019-03-25T10:13:32.580Z,834.68
2019-03-25T10:14:33.071Z,834.69
2019-03-25T10:15:32.572Z,834.69
2019-03-25T10:16:32.694Z,834.74
2019-03-25T10:17:33.574Z,834.74
2019-03-25T10:18:32.782Z,834.78
2019-03-25T10:19:32.543Z,834.77
2019-03-25T10:20:35.142Z,834.73
2019-03-25T10:21:32.489Z,834.74
2019-03-25T10:22:32.524Z,834.68
2019-03-25T10:23:32.697Z,834.66
2019-03-25T10:24:32.792Z,834.63
2019-03-25T10:25:32.463Z,834.65
2019-03-25T10:26:35.326Z,834.62
2019-03-25T10:27:32.422Z,834.73
2019-03-25T10:28:32.481Z,834.68
2019-03-25T10:29:32.500Z,834.64
2019-03-25T10:30:34.614Z,834.61
2019-03-25T10:31:32.422Z,834.57
2019-03-25T10:32:32.485Z,834.54
2019-03-25T10:33:32.380Z,834.59
2019-03-25T10:34:32.331Z,834.58
2019-03-25T10:35:33.232Z,834.59
2019-03-25T10:36:32.472Z,834.63
2019-03-25T10:37:32.461Z,834.57
2019-03-25T10:38:32.602Z,834.58
2019-03-25T10:39:32.370Z,834.56
2019-03-25T10:40:32.270Z,834.56
2019-03-25T10:41:32.371Z,834.57
2019-03-25T10:42:32.272Z,834.61
2019-03-25T10:43:32.414Z,834.59
2019-03-25T10:44:32.586Z,834.59
2019-03-25T10:45:32.211Z,834.66
2019-03-25T10:46:36.075Z,834.52
2019-03-25T10:47:32.360Z,834.52
2019-03-25T10:48:32.192Z,834.47
2019-03-25T10:49:32.296Z,834.45
2019-03-25T10:50:33.188Z,834.48
2019-03-25T10:51:32.160Z,834.50
2019-03-25T10:52:32.503Z,834.49
2019-03-25T10:53:32.933Z,834.41
2019-03-25T10:54:33.951Z,834.35
2019-03-25T10:55:32.119Z,834.32
2019-03-25T10:56:32.403Z,834.36
2019-03-25T10:57:32.153Z,834.44
2019-03-25T10:58:32.101Z,834.42
2019-03-25T10:59:32.382Z,834.38
2019-03-25T11:00:36.561Z,834.39
2019-03-25T11:01:32.069Z,834.41
2019-03-25T11:02:32.039Z,834.38
2019-03-25T11:03:32.031Z,834.33
2019-03-25T11:04:32.081Z,834.32
2019-03-25T11:05:33.710Z,834.30
2019-03-25T11:06:32.171Z,834.37
2019-03-25T11:07:33.286Z,834.34
2019-03-25T11:08:31.970Z,834.31
2019-03-25T11:09:31.961Z,834.37
2019-03-25T11:10:32.170Z,834.25
2019-03-25T11:11:32.011Z,834.28
2019-03-25T11:12:32.143Z,834.31
2019-03-25T11:13:32.503Z,834.27
2019-03-25T11:14:33.553Z,834.28
2019-03-25T11:15:31.871Z,834.32
2019-03-25T11:16:31.942Z,834.32
2019-03-25T11:17:31.939Z,834.25
2019-03-25T11:18:31.850Z,834.29
2019-03-25T11:19:32.595Z,834.35
2019-03-25T11:20:32.992Z,834.41
2019-03-25T11:21:31.819Z,834.32
2019-03-25T11:22:31.809Z,834.30
2019-03-25T11:23:31.899Z,834.32
2019-03-25T11:24:31.800Z,834.31
2019-03-25T11:25:31.811Z,834.30
2019-03-25T11:26:31.801Z,834.34
2019-03-25T11:27:31.781Z,834.34
2019-03-25T11:28:36.282Z,834.36
2019-03-25T11:29:31.819Z,834.36
2019-03-25T11:30:31.752Z,834.40
2019-03-25T11:31:32.032Z,834.35
2019-03-25T11:32:31.701Z,834.32
2019-03-25T11:33:35.541Z,834.34
2019-03-25T11:34:31.694Z,834.34
2019-03-25T11:35:32.002Z,834.34
2019-03-25T11:36:32.692Z,834.30
2019-03-25T11:37:31.632Z,834.29
2019-03-25T11:38:31.645Z,834.22
2019-03-25T11:39:31.663Z,834.26
2019-03-25T11:40:33.114Z,834.23
2019-03-25T11:41:32.247Z,834.22
2019-03-25T11:42:33.993Z,834.23
2019-03-25T11:43:31.640Z,834.16
2019-03-25T11:44:32.992Z,834.22
2019-03-25T11:45:31.622Z,834.19
2019-03-25T11:46:31.841Z,834.16
2019-03-25T11:47:32.228Z,834.11
2019-03-25T11:48:31.530Z,834.12
2019-03-25T11:49:31.510Z,834.13
2019-03-25T11:50:31.993Z,834.14
2019-03-25T11:51:31.532Z,834.16
2019-03-25T11:52:31.933Z,834.16
2019-03-25T11:53:31.611Z,834.13
2019-03-25T11:54:32.242Z,834.13
2019-03-25T11:55:31.463Z,834.09
2019-03-25T11:56:31.467Z,834.03
2019-03-25T11:57:31.469Z,834.03
2019-03-25T11:58:31.461Z,833.98
2019-03-25T11:59:31.611Z,834.08
2019-03-25T12:00:31.390Z,834.01
2019-03-25T12:01:31.390Z,833.97
2019-03-25T12:02:31.390Z,833.99
2019-03-25T12:03:32.052Z,833.98
2019-03-25T12:04:32.003Z,833.99
2019-03-25T12:05:31.409Z,833.94
2019-03-25T12:06:31.375Z,834.00
2019-03-25T12:07:31.320Z,833.93
2019-03-25T12:08:31.411Z,833.95
2019-03-25T12:09:31.281Z,833.97
2019-03-25T12:10:32.492Z,834.04
2019-03-25T12:11:33.582Z,834.01
2019-03-25T12:12:31.259Z,834.01
2019-03-25T12:13:31.241Z,833.98
2019-03-25T12:14:31.230Z,833.96
2019-03-25T12:15:31.225Z,833.98
2019-03-25T12:16:32.655Z,833.87
2019-03-25T12:17:31.259Z,833.93
2019-03-25T12:18:31.181Z,833.87
2019-03-25T12:19:31.161Z,833.82
2019-03-25T12:20:31.573Z,833.81
2019-03-25T12:21:31.993Z,833.78
2019-03-25T12:22:31.182Z,833.78
2019-03-25T12:23:32.092Z,833.82
2019-03-25T12:24:31.984Z,833.84
2019-03-25T12:25:31.402Z,833.80
2019-03-25T12:26:31.322Z,833.83
2019-03-25T12:27:31.196Z,833.75
2019-03-25T12:28:31.116Z,833.83